Time;durP1;ratioP1;P1;durP2;ratioP2;P2;SDS_P1;SDS_P2;PMS_P1;PMS_P2;Temp;Humidity;BMP_temperature;BMP_pressure;BME280_temperature;BME280_humidity;BME280_pressure;Samples;Min_cycle;Max_cycle;Signal;HPM_P1;HPM_P2
2021/12/29 00:00:29;;;;;;;4.72;1.42;;;9.40;99.90;;;;;;5118404;27;20200;-82
2021/12/29 00:02:59;;;;;;;4.10;1.33;;;9.40;99.90;;;;;;5132334;27;20199;-82
2021/12/29 00:05:29;;;;;;;4.75;1.40;;;9.40;99.90;;;;;;5115498;27;20934;-83
2021/12/29 00:07:58;;;;;;;5.18;1.50;;;9.30;99.90;;;;;;5118865;27;20701;-82
2021/12/29 00:10:25;;;;;;;5.18;1.65;;;9.40;99.90;;;;;;5128940;27;20228;-82
2021/12/29 00:12:53;;;;;;;4.80;1.63;;;9.40;99.90;;;;;;5129129;27;20968;-83
2021/12/29 00:15:24;;;;;;;3.60;1.60;;;9.40;99.90;;;;;;5130875;27;20206;-83
2021/12/29 00:17:52;;;;;;;7.07;2.05;;;9.40;99.90;;;;;;5117283;27;20691;-82
2021/12/29 00:20:22;;;;;;;4.95;1.45;;;9.40;99.90;;;;;;5118489;27;20195;-82
2021/12/29 00:22:50;;;;;;;3.25;1.60;;;9.40;99.90;;;;;;5121638;27;20278;-83
2021/12/29 00:25:17;;;;;;;3.17;1.42;;;9.40;99.90;;;;;;5121453;27;20221;-83
2021/12/29 00:27:44;;;;;;;5.47;1.50;;;9.40;99.90;;;;;;5136555;27;20677;-83
2021/12/29 00:30:13;;;;;;;4.57;1.50;;;9.40;99.90;;;;;;5123943;27;20192;-83
2021/12/29 00:32:40;;;;;;;5.18;1.58;;;9.40;99.90;;;;;;5156083;27;20183;-83
2021/12/29 00:35:11;;;;;;;4.05;1.30;;;9.40;99.90;;;;;;5158320;27;20185;-83
2021/12/29 00:37:39;;;;;;;4.60;1.27;;;9.40;99.90;;;;;;5145857;27;20207;-83
2021/12/29 00:40:09;;;;;;;5.30;1.30;;;9.40;99.90;;;;;;5140615;27;20199;-83
2021/12/29 00:42:36;;;;;;;5.68;1.30;;;9.40;99.90;;;;;;5124385;27;20231;-83
2021/12/29 00:45:04;;;;;;;2.50;1.17;;;9.50;99.90;;;;;;5134899;27;20196;-82
2021/12/29 00:47:33;;;;;;;4.18;1.42;;;9.50;99.90;;;;;;5154299;27;20215;-82
2021/12/29 00:50:01;;;;;;;3.95;1.60;;;9.50;99.90;;;;;;5154769;27;20181;-83
2021/12/29 00:52:28;;;;;;;3.92;1.67;;;9.40;99.90;;;;;;5142332;27;20216;-83
2021/12/29 00:54:55;;;;;;;3.45;1.50;;;9.40;99.90;;;;;;5138802;27;20192;-83
2021/12/29 00:57:24;;;;;;;3.90;1.45;;;9.40;99.90;;;;;;5118530;28;20491;-83
2021/12/29 00:59:51;;;;;;;1.98;1.13;;;9.40;99.90;;;;;;5123447;27;20295;-83
2021/12/29 01:02:18;;;;;;;4.28;1.35;;;9.40;99.90;;;;;;5129816;27;20287;-82
2021/12/29 01:04:45;;;;;;;5.53;1.75;;;9.30;99.90;;;;;;5125953;27;20199;-83
2021/12/29 01:07:12;;;;;;;3.10;1.20;;;9.30;99.90;;;;;;5132573;27;20228;-83
2021/12/29 01:09:39;;;;;;;3.53;1.30;;;9.30;99.90;;;;;;5130989;27;20231;-82
2021/12/29 01:12:07;;;;;;;4.43;1.60;;;9.30;99.90;;;;;;5126210;27;20278;-82
2021/12/29 01:14:40;;;;;;;4.43;1.30;;;9.30;99.90;;;;;;5130723;27;20681;-82
2021/12/29 01:17:08;;;;;;;4.28;1.45;;;9.30;99.90;;;;;;5120692;27;20212;-82
2021/12/29 01:19:35;;;;;;;5.03;1.67;;;9.30;99.90;;;;;;5123826;27;20193;-82
2021/12/29 01:22:04;;;;;;;2.30;1.40;;;9.30;99.90;;;;;;5121408;27;20222;-81
2021/12/29 01:24:31;;;;;;;3.42;1.50;;;9.30;99.90;;;;;;5116409;27;20194;-82
2021/12/29 01:26:59;;;;;;;2.63;1.20;;;9.30;99.90;;;;;;5119884;27;20290;-82
2021/12/29 01:29:28;;;;;;;3.97;1.30;;;9.30;99.90;;;;;;5125921;27;20309;-82
2021/12/29 01:31:57;;;;;;;4.00;1.70;;;9.30;99.90;;;;;;5122074;27;20628;-82
2021/12/29 01:34:24;;;;;;;4.50;1.35;;;9.30;99.90;;;;;;5128744;27;20202;-83
2021/12/29 01:36:52;;;;;;;2.85;1.27;;;9.30;99.90;;;;;;5114360;27;20228;-82
2021/12/29 01:39:20;;;;;;;2.03;1.00;;;9.30;99.90;;;;;;5119837;27;20613;-82
2021/12/29 01:41:49;;;;;;;3.65;1.10;;;9.30;99.90;;;;;;5126972;27;20226;-83
2021/12/29 01:44:17;;;;;;;3.53;1.40;;;9.30;99.90;;;;;;5127220;27;20193;-83
2021/12/29 01:46:46;;;;;;;3.92;1.20;;;9.30;99.90;;;;;;5123637;27;20237;-83
2021/12/29 01:49:14;;;;;;;3.17;1.27;;;9.40;99.90;;;;;;5113190;27;20663;-83
2021/12/29 01:51:48;;;;;;;1.92;1.00;;;9.40;99.90;;;;;;5116747;27;20286;-82
2021/12/29 01:54:23;;;;;;;1.35;0.85;;;9.40;99.90;;;;;;5117791;27;20188;-82
2021/12/29 01:56:52;;;;;;;1.98;0.95;;;9.50;99.90;;;;;;5118385;27;20220;-82
2021/12/29 01:59:19;;;;;;;1.25;0.93;;;9.40;99.90;;;;;;5121191;27;20282;-83
2021/12/29 02:01:46;;;;;;;2.45;0.90;;;9.40;99.90;;;;;;5124445;27;20310;-82
2021/12/29 02:04:15;;;;;;;2.08;0.85;;;9.50;99.90;;;;;;5131586;27;20671;-82
2021/12/29 02:06:42;;;;;;;1.98;0.90;;;9.50;99.90;;;;;;5116353;27;20266;-83
2021/12/29 02:09:09;;;;;;;2.45;1.00;;;9.50;99.90;;;;;;5129159;27;20618;-82
2021/12/29 02:11:37;;;;;;;1.48;0.70;;;9.50;99.90;;;;;;5129149;27;20295;-82
2021/12/29 02:14:09;;;;;;;1.88;0.77;;;9.50;99.90;;;;;;5119311;27;21907;-83
2021/12/29 02:16:37;;;;;;;2.50;1.02;;;9.40;99.90;;;;;;5126540;27;21091;-82
2021/12/29 02:19:06;;;;;;;3.25;0.90;;;9.40;99.90;;;;;;5119492;27;20682;-82
2021/12/29 02:21:35;;;;;;;6.63;1.30;;;9.40;99.90;;;;;;5125456;27;20215;-82
2021/12/29 02:24:18;;;;;;;1.80;0.90;;;9.40;99.90;;;;;;5119520;27;20218;-82
2021/12/29 02:26:46;;;;;;;1.60;0.80;;;9.40;99.90;;;;;;5127830;27;20257;-82
2021/12/29 02:29:17;;;;;;;1.90;0.95;;;9.40;99.90;;;;;;5118441;27;20223;-82
2021/12/29 02:31:45;;;;;;;2.50;1.00;;;9.50;99.90;;;;;;5115415;27;20204;-82
2021/12/29 02:34:14;;;;;;;1.80;0.88;;;9.50;99.90;;;;;;5118696;27;20217;-82
2021/12/29 02:36:46;;;;;;;2.08;0.95;;;9.50;99.90;;;;;;5131078;27;20339;-83
2021/12/29 02:39:16;;;;;;;1.88;0.82;;;9.50;99.90;;;;;;5116948;27;20666;-83
2021/12/29 02:41:49;;;;;;;3.30;1.23;;;9.50;99.90;;;;;;5113050;27;20222;-82
2021/12/29 02:44:20;;;;;;;3.45;0.80;;;9.50;99.90;;;;;;5125989;27;20186;-82
2021/12/29 02:46:47;;;;;;;2.47;1.00;;;9.50;99.90;;;;;;5115649;27;20243;-82
2021/12/29 02:49:15;;;;;;;3.13;1.40;;;9.40;99.90;;;;;;5114947;27;20196;-83
2021/12/29 02:51:44;;;;;;;2.03;1.10;;;9.40;99.90;;;;;;5124773;27;20200;-83
2021/12/29 02:54:12;;;;;;;1.98;1.02;;;9.40;99.90;;;;;;5123517;28;20192;-82
2021/12/29 02:56:39;;;;;;;2.08;1.02;;;9.40;99.90;;;;;;5116227;28;20301;-82
2021/12/29 02:59:06;;;;;;;3.97;1.30;;;9.40;99.90;;;;;;5114880;28;20543;-82
2021/12/29 03:01:33;;;;;;;2.38;1.02;;;9.50;99.90;;;;;;5132170;27;20313;-82
2021/12/29 03:04:05;;;;;;;1.40;0.80;;;9.40;99.90;;;;;;5123885;27;20222;-81
2021/12/29 03:06:32;;;;;;;2.15;1.23;;;9.40;99.90;;;;;;5124153;28;20216;-82
2021/12/29 03:09:01;;;;;;;2.47;0.90;;;9.40;99.90;;;;;;5117159;28;20663;-81
2021/12/29 03:11:28;;;;;;;3.72;1.20;;;9.40;99.90;;;;;;5119190;27;20201;-81
2021/12/29 03:13:55;;;;;;;2.60;1.08;;;9.40;99.90;;;;;;5111373;28;20275;-81
2021/12/29 03:16:22;;;;;;;2.08;0.90;;;9.40;99.90;;;;;;5117140;28;20257;-81
2021/12/29 03:18:49;;;;;;;3.00;0.98;;;9.30;99.90;;;;;;5121507;28;20198;-82
2021/12/29 03:21:16;;;;;;;2.50;1.00;;;9.30;99.90;;;;;;5127066;28;20738;-81
2021/12/29 03:23:43;;;;;;;3.47;1.20;;;9.30;99.90;;;;;;5118120;27;20221;-81
2021/12/29 03:26:11;;;;;;;4.18;1.10;;;9.30;99.90;;;;;;5113564;28;20213;-82
2021/12/29 03:28:39;;;;;;;2.92;0.90;;;9.30;99.90;;;;;;5123589;28;20524;-81
2021/12/29 03:31:10;;;;;;;1.27;0.90;;;9.30;99.90;;;;;;5120598;27;20249;-80
2021/12/29 03:33:38;;;;;;;3.42;1.02;;;9.30;99.90;;;;;;5115240;27;20205;-81
2021/12/29 03:36:06;;;;;;;1.73;1.10;;;9.30;99.90;;;;;;5121367;27;20779;-81
2021/12/29 03:38:36;;;;;;;1.95;0.93;;;9.30;99.90;;;;;;5113922;28;20194;-81
2021/12/29 03:41:04;;;;;;;3.90;1.35;;;9.20;99.90;;;;;;5122439;28;20648;-81
2021/12/29 03:43:34;;;;;;;2.20;1.00;;;9.20;99.90;;;;;;5116990;27;20625;-81
2021/12/29 03:46:03;;;;;;;4.20;0.80;;;9.20;99.90;;;;;;5115889;27;20315;-81
2021/12/29 03:48:31;;;;;;;2.92;1.30;;;9.20;99.90;;;;;;5132316;27;20277;-81
2021/12/29 03:50:59;;;;;;;1.77;0.90;;;9.20;99.90;;;;;;5121316;27;20284;-81
2021/12/29 03:53:27;;;;;;;2.45;0.90;;;9.20;99.90;;;;;;5123411;27;20226;-81
2021/12/29 03:55:54;;;;;;;2.03;0.80;;;9.20;99.90;;;;;;5119047;27;20309;-81
2021/12/29 03:58:24;;;;;;;2.67;0.90;;;9.10;99.90;;;;;;5134979;27;20698;-82
2021/12/29 04:00:56;;;;;;;1.25;0.82;;;9.10;99.90;;;;;;5119262;27;20203;-82
2021/12/29 04:03:23;;;;;;;2.63;1.10;;;9.10;99.90;;;;;;5135662;27;20250;-81
2021/12/29 04:05:50;;;;;;;1.33;0.80;;;9.10;99.90;;;;;;5125167;27;20210;-81
2021/12/29 04:08:18;;;;;;;1.60;0.90;;;9.10;99.90;;;;;;5133928;27;20281;-81
2021/12/29 04:10:45;;;;;;;2.50;0.95;;;9.00;99.90;;;;;;5117318;27;20204;-81
2021/12/29 04:13:12;;;;;;;1.80;0.80;;;9.00;99.90;;;;;;5117403;27;20210;-81
2021/12/29 04:15:39;;;;;;;2.90;1.20;;;9.10;99.90;;;;;;5135392;27;20208;-81
2021/12/29 04:18:15;;;;;;;1.20;0.80;;;9.00;99.90;;;;;;5130640;27;20192;-81
2021/12/29 04:20:57;;;;;;;1.25;0.60;;;9.00;99.90;;;;;;5123265;27;20193;-81
2021/12/29 04:23:27;;;;;;;1.60;0.80;;;9.10;99.90;;;;;;5122970;27;20652;-81
2021/12/29 04:25:55;;;;;;;1.70;0.85;;;9.00;99.90;;;;;;5115676;27;20223;-82
2021/12/29 04:28:25;;;;;;;0.98;0.52;;;9.00;99.90;;;;;;5122630;27;20620;-81
2021/12/29 04:30:55;;;;;;;1.80;0.50;;;9.00;99.90;;;;;;5123369;27;20197;-81
2021/12/29 04:33:24;;;;;;;2.17;0.70;;;9.10;99.90;;;;;;5122453;27;20648;-82
2021/12/29 04:35:52;;;;;;;1.00;0.60;;;9.00;99.90;;;;;;5119104;27;20228;-82
2021/12/29 04:38:21;;;;;;;2.28;0.70;;;9.10;99.90;;;;;;5122558;27;20658;-81
2021/12/29 04:40:49;;;;;;;1.20;0.60;;;9.10;99.90;;;;;;5121887;27;20193;-82
2021/12/29 04:43:17;;;;;;;1.50;0.60;;;9.10;99.90;;;;;;5114662;27;20216;-81
2021/12/29 04:45:45;;;;;;;1.88;0.65;;;9.00;99.90;;;;;;5122293;27;20310;-81
2021/12/29 04:48:13;;;;;;;1.10;0.60;;;9.10;99.90;;;;;;5127624;27;20188;-80
2021/12/29 04:50:50;;;;;;;2.42;0.63;;;9.10;99.90;;;;;;5121982;27;20200;-81
2021/12/29 04:53:18;;;;;;;1.38;0.60;;;9.10;99.90;;;;;;5116457;27;20201;-81
2021/12/29 04:55:49;;;;;;;4.40;0.70;;;9.10;99.90;;;;;;5132629;27;20616;-81
2021/12/29 04:58:18;;;;;;;1.15;0.70;;;9.10;99.90;;;;;;5120522;27;20252;-81
2021/12/29 05:00:47;;;;;;;1.05;0.60;;;9.10;99.90;;;;;;5118727;27;20234;-81
2021/12/29 05:03:14;;;;;;;1.55;0.63;;;9.10;99.90;;;;;;5115083;27;20244;-81
2021/12/29 05:05:55;;;;;;;2.05;0.90;;;9.10;99.90;;;;;;5122617;27;20298;-81
2021/12/29 05:08:29;;;;;;;0.90;0.60;;;9.10;99.90;;;;;;5122241;27;20194;-81
2021/12/29 05:11:01;;;;;;;1.25;0.50;;;9.10;99.90;;;;;;5124292;27;20196;-81
2021/12/29 05:13:30;;;;;;;0.90;0.60;;;9.10;99.90;;;;;;5131250;27;20296;-81
2021/12/29 05:15:57;;;;;;;0.90;0.60;;;9.00;99.90;;;;;;5132234;27;20239;-81
2021/12/29 05:18:25;;;;;;;0.90;0.60;;;9.10;99.90;;;;;;5118141;27;20197;-81
2021/12/29 05:20:54;;;;;;;1.33;0.75;;;9.10;99.90;;;;;;5129577;27;20196;-81
2021/12/29 05:23:23;;;;;;;1.23;0.60;;;9.10;99.90;;;;;;5127547;27;20315;-82
2021/12/29 05:25:50;;;;;;;1.02;0.70;;;9.00;99.90;;;;;;5128289;27;20251;-81
2021/12/29 05:28:18;;;;;;;0.85;0.60;;;9.00;99.90;;;;;;5116363;27;20192;-81
2021/12/29 05:30:46;;;;;;;0.82;0.60;;;9.00;99.90;;;;;;5118970;27;20807;-81
2021/12/29 05:33:14;;;;;;;1.45;0.70;;;8.90;99.90;;;;;;5124494;27;20204;-82
2021/12/29 05:35:42;;;;;;;0.70;0.60;;;8.80;99.90;;;;;;5112579;28;20686;-82
2021/12/29 05:38:11;;;;;;;1.55;0.70;;;8.70;99.90;;;;;;5113174;28;20608;-83
2021/12/29 05:40:38;;;;;;;1.63;0.73;;;8.60;99.90;;;;;;5117380;27;20331;-81
2021/12/29 05:43:06;;;;;;;0.90;0.60;;;8.50;99.90;;;;;;5129915;27;20593;-83
2021/12/29 05:45:33;;;;;;;1.20;0.70;;;8.50;99.90;;;;;;5132906;27;20211;-82
2021/12/29 05:48:01;;;;;;;2.60;0.73;;;8.40;99.90;;;;;;5114847;27;20239;-83
2021/12/29 05:50:30;;;;;;;1.05;0.80;;;8.40;99.90;;;;;;5103141;28;20250;-82
2021/12/29 05:52:58;;;;;;;1.58;0.80;;;8.40;99.90;;;;;;5099152;28;20570;-83
2021/12/29 05:55:27;;;;;;;2.08;1.00;;;8.40;99.90;;;;;;5101809;28;20215;-82
2021/12/29 05:57:54;;;;;;;2.05;1.00;;;8.40;99.90;;;;;;5099668;28;20206;-83
2021/12/29 06:00:23;;;;;;;1.55;0.80;;;8.40;99.90;;;;;;5093638;28;20193;-83
2021/12/29 06:02:51;;;;;;;1.65;0.90;;;8.40;99.90;;;;;;5097666;28;20246;-83
2021/12/29 06:05:18;;;;;;;1.35;0.70;;;8.40;99.90;;;;;;5097999;28;20214;-83
2021/12/29 06:07:45;;;;;;;1.80;0.70;;;8.40;99.90;;;;;;5096657;28;20233;-82
2021/12/29 06:10:13;;;;;;;2.45;0.80;;;8.40;99.90;;;;;;5103007;28;20201;-83
2021/12/29 06:12:42;;;;;;;3.50;0.80;;;8.50;99.90;;;;;;5100282;28;20194;-83
2021/12/29 06:15:10;;;;;;;1.95;1.00;;;8.60;99.90;;;;;;5100436;28;20245;-83
2021/12/29 06:17:37;;;;;;;1.17;0.70;;;8.60;99.90;;;;;;5105239;28;20201;-83
2021/12/29 06:20:06;;;;;;;3.47;0.90;;;8.60;99.90;;;;;;5109672;28;20195;-83
2021/12/29 06:22:33;;;;;;;3.38;0.88;;;8.60;99.90;;;;;;5107621;27;20197;-83
2021/12/29 06:25:01;;;;;;;2.85;0.90;;;8.50;99.90;;;;;;5100241;27;20959;-85
2021/12/29 06:27:28;;;;;;;1.08;0.90;;;8.50;99.90;;;;;;5097960;28;20283;-85
2021/12/29 06:29:56;;;;;;;1.88;0.90;;;8.50;99.90;;;;;;5111984;28;20209;-84
2021/12/29 06:32:25;;;;;;;1.63;0.77;;;8.50;99.90;;;;;;5105063;28;20192;-84
2021/12/29 06:34:53;;;;;;;4.15;1.10;;;8.50;99.90;;;;;;5110579;28;20212;-82
2021/12/29 06:37:20;;;;;;;1.05;0.85;;;8.50;99.90;;;;;;5106748;28;20651;-82
2021/12/29 06:39:47;;;;;;;2.55;0.95;;;8.50;99.90;;;;;;5104900;28;20652;-82
2021/12/29 06:42:16;;;;;;;3.72;1.25;;;8.50;99.90;;;;;;5102846;28;20192;-83
2021/12/29 06:44:45;;;;;;;1.83;0.90;;;8.40;99.90;;;;;;5099433;28;20260;-82
2021/12/29 06:47:14;;;;;;;1.45;0.77;;;8.40;99.90;;;;;;5104499;28;20260;-83
2021/12/29 06:49:42;;;;;;;2.28;0.93;;;8.30;99.90;;;;;;5107315;28;20207;-83
2021/12/29 06:52:09;;;;;;;2.65;1.20;;;8.30;99.90;;;;;;5096184;28;20250;-83
2021/12/29 06:54:37;;;;;;;3.42;0.80;;;8.30;99.90;;;;;;5101958;28;20269;-83
2021/12/29 06:57:05;;;;;;;2.75;1.05;;;8.40;99.90;;;;;;5122038;28;20200;-81
2021/12/29 06:59:32;;;;;;;3.83;1.25;;;8.30;99.90;;;;;;5117147;28;21040;-82
2021/12/29 07:01:59;;;;;;;1.25;0.90;;;8.30;99.90;;;;;;5121044;28;20224;-78
2021/12/29 07:04:29;;;;;;;2.00;0.90;;;8.30;99.90;;;;;;5108003;28;20224;-84
2021/12/29 07:06:57;;;;;;;2.42;1.10;;;8.40;99.90;;;;;;5105122;28;20197;-83
2021/12/29 07:09:24;;;;;;;4.10;1.20;;;8.40;99.90;;;;;;5112170;28;20224;-81
2021/12/29 07:11:51;;;;;;;5.57;1.73;;;8.40;99.90;;;;;;5128795;28;20198;-81
2021/12/29 07:14:20;;;;;;;4.05;1.00;;;8.40;99.90;;;;;;5123706;28;20196;-80
2021/12/29 07:16:48;;;;;;;3.13;1.27;;;8.50;99.90;;;;;;5131269;28;20212;-82
2021/12/29 07:19:15;;;;;;;1.92;1.00;;;8.50;99.90;;;;;;5122798;28;20750;-81
2021/12/29 07:21:44;;;;;;;4.10;1.38;;;8.50;99.90;;;;;;5100853;28;20192;-82
2021/12/29 07:24:12;;;;;;;3.95;1.10;;;8.50;99.90;;;;;;5100004;28;20648;-76
2021/12/29 07:26:40;;;;;;;1.95;1.00;;;8.50;99.90;;;;;;5089543;28;20218;-76
2021/12/29 07:29:09;;;;;;;2.65;1.33;;;8.70;99.90;;;;;;5101181;28;20651;-76
2021/12/29 07:31:36;;;;;;;3.65;1.00;;;8.70;99.90;;;;;;5095828;28;20191;-84
2021/12/29 07:34:03;;;;;;;2.30;1.00;;;8.80;99.90;;;;;;5101641;28;20189;-84
2021/12/29 07:36:30;;;;;;;2.50;1.17;;;8.80;99.90;;;;;;5102020;28;20227;-83
2021/12/29 07:38:59;;;;;;;2.90;1.13;;;8.90;99.90;;;;;;5106179;28;20201;-82
2021/12/29 07:41:26;;;;;;;2.67;1.20;;;8.90;99.90;;;;;;5100147;28;20592;-90
2021/12/29 07:43:56;;;;;;;2.78;1.00;;;8.90;99.90;;;;;;5106884;28;20319;-86
2021/12/29 07:46:24;;;;;;;4.35;1.30;;;8.90;99.90;;;;;;5101705;27;20306;-88
2021/12/29 07:48:51;;;;;;;1.85;1.20;;;9.00;99.90;;;;;;5102718;27;20275;-90
2021/12/29 07:51:17;;;;;;;3.08;1.50;;;9.00;99.90;;;;;;5107415;28;20245;-90
2021/12/29 07:53:44;;;;;;;2.20;0.93;;;9.10;99.90;;;;;;5104179;28;20193;-84
2021/12/29 07:56:13;;;;;;;3.67;2.00;;;9.20;99.90;;;;;;5098365;28;20741;-85
2021/12/29 07:58:40;;;;;;;2.38;0.98;;;9.20;99.90;;;;;;5096126;28;20193;-83
2021/12/29 08:01:07;;;;;;;2.80;1.23;;;9.20;99.90;;;;;;5103997;28;20184;-83
2021/12/29 08:03:34;;;;;;;2.67;1.20;;;9.20;99.90;;;;;;5096373;28;20686;-82
2021/12/29 08:06:01;;;;;;;3.30;1.15;;;9.20;99.90;;;;;;5095195;27;20321;-85
2021/12/29 08:08:28;;;;;;;2.97;1.10;;;9.20;99.90;;;;;;5093460;27;20200;-83
2021/12/29 08:10:56;;;;;;;2.70;0.80;;;9.30;99.90;;;;;;5099183;28;20201;-84
2021/12/29 08:13:25;;;;;;;1.52;0.93;;;9.30;99.90;;;;;;5088689;28;20660;-84
2021/12/29 08:15:54;;;;;;;1.70;0.82;;;9.30;99.90;;;;;;5093370;27;20631;-84
2021/12/29 08:18:21;;;;;;;3.72;0.90;;;9.40;99.90;;;;;;5097398;28;20290;-84
2021/12/29 08:20:48;;;;;;;1.88;0.90;;;9.30;99.90;;;;;;5096923;28;20311;-85
2021/12/29 08:23:16;;;;;;;3.28;0.85;;;9.30;99.90;;;;;;5098585;28;20205;-84
2021/12/29 08:25:43;;;;;;;2.13;0.80;;;9.40;99.90;;;;;;5095024;28;20935;-84
2021/12/29 08:28:10;;;;;;;1.33;0.80;;;9.40;99.90;;;;;;5097350;28;20202;-84
2021/12/29 08:30:39;;;;;;;1.42;0.70;;;9.40;99.90;;;;;;5098797;28;20280;-84
2021/12/29 08:33:07;;;;;;;1.98;1.33;;;9.40;99.90;;;;;;5093996;28;20194;-85
2021/12/29 08:35:34;;;;;;;1.45;0.70;;;9.50;99.90;;;;;;5094301;28;20735;-84
2021/12/29 08:38:01;;;;;;;3.22;0.90;;;9.50;99.90;;;;;;5094932;28;20900;-84
2021/12/29 08:40:29;;;;;;;3.03;0.80;;;9.50;99.90;;;;;;5089990;28;20201;-85
2021/12/29 08:42:58;;;;;;;2.05;1.20;;;9.50;99.90;;;;;;5096912;28;20843;-84
2021/12/29 08:45:26;;;;;;;1.70;0.90;;;9.70;99.90;;;;;;5097666;28;20228;-85
2021/12/29 08:47:58;;;;;;;1.92;0.90;;;9.70;99.90;;;;;;5093143;28;20231;-84
2021/12/29 08:50:29;;;;;;;2.17;0.70;;;9.70;99.90;;;;;;5093846;27;20288;-84
2021/12/29 08:52:57;;;;;;;2.22;1.08;;;9.70;99.90;;;;;;5091591;28;20199;-84
2021/12/29 08:55:24;;;;;;;3.80;1.15;;;9.70;99.90;;;;;;5095850;28;20227;-82
2021/12/29 08:57:51;;;;;;;3.50;1.33;;;9.60;99.90;;;;;;5093081;28;20558;-82
2021/12/29 09:00:20;;;;;;;2.35;1.00;;;9.60;99.90;;;;;;5100315;28;20197;-80
2021/12/29 09:02:48;;;;;;;2.63;1.08;;;9.60;99.90;;;;;;5093663;28;20583;-83
2021/12/29 09:05:17;;;;;;;2.58;1.00;;;9.70;99.90;;;;;;5097901;28;20224;-82
2021/12/29 09:07:45;;;;;;;2.75;0.90;;;9.70;99.90;;;;;;5093867;28;20197;-83
2021/12/29 09:10:13;;;;;;;1.42;0.82;;;9.70;99.90;;;;;;5106523;27;20205;-83
2021/12/29 09:12:41;;;;;;;1.25;0.93;;;9.70;99.90;;;;;;5095780;28;20219;-83
2021/12/29 09:15:09;;;;;;;1.52;1.10;;;9.60;99.90;;;;;;5101237;28;20213;-83
2021/12/29 09:17:36;;;;;;;2.00;1.23;;;9.60;99.90;;;;;;5109580;28;20205;-83
2021/12/29 09:20:03;;;;;;;1.30;0.88;;;9.60;99.90;;;;;;5092596;28;20617;-82
2021/12/29 09:22:32;;;;;;;1.17;0.70;;;9.50;99.90;;;;;;5101042;28;20223;-83
2021/12/29 09:24:59;;;;;;;2.88;1.20;;;9.50;99.90;;;;;;5103730;28;20222;-83
2021/12/29 09:27:26;;;;;;;1.58;1.10;;;9.50;99.90;;;;;;5103812;28;20203;-83
2021/12/29 09:29:55;;;;;;;2.88;1.05;;;9.50;99.90;;;;;;5101895;28;20207;-82
2021/12/29 09:32:23;;;;;;;2.90;1.00;;;9.50;99.90;;;;;;5092773;28;20201;-83
2021/12/29 09:34:51;;;;;;;1.88;1.02;;;9.60;99.90;;;;;;5095424;28;20299;-82
2021/12/29 09:37:18;;;;;;;3.92;1.20;;;9.60;99.90;;;;;;5091659;28;20236;-82
2021/12/29 09:39:46;;;;;;;2.30;1.10;;;9.60;99.90;;;;;;5087630;28;20209;-83
2021/12/29 09:42:13;;;;;;;4.30;1.23;;;9.70;99.90;;;;;;5096827;28;20224;-82
2021/12/29 09:44:40;;;;;;;2.28;0.90;;;9.70;99.90;;;;;;5093860;28;20226;-83
2021/12/29 09:47:08;;;;;;;5.53;2.00;;;9.80;99.90;;;;;;5088257;28;22838;-81
2021/12/29 09:49:37;;;;;;;1.35;0.80;;;9.90;99.90;;;;;;5087334;28;21730;-82
2021/12/29 09:52:05;;;;;;;2.15;0.95;;;9.90;99.90;;;;;;5094174;28;20201;-83
2021/12/29 09:54:33;;;;;;;2.75;0.90;;;9.90;99.90;;;;;;5096647;28;20220;-82
2021/12/29 09:57:03;;;;;;;1.50;1.08;;;10.00;99.90;;;;;;5096307;28;20194;-84
2021/12/29 09:59:30;;;;;;;1.70;1.08;;;10.10;99.90;;;;;;5096389;28;20202;-82
2021/12/29 10:01:58;;;;;;;2.60;1.30;;;10.10;99.90;;;;;;5092108;28;20218;-82
2021/12/29 10:04:25;;;;;;;3.40;1.40;;;10.10;99.90;;;;;;5098186;28;20725;-82
2021/12/29 10:06:52;;;;;;;2.92;1.52;;;10.10;99.90;;;;;;5098411;28;20703;-82
2021/12/29 10:09:21;;;;;;;2.53;1.55;;;10.10;99.90;;;;;;5093677;27;20285;-82
2021/12/29 10:12:06;;;;;;;2.70;1.17;;;10.00;99.90;;;;;;5097356;27;20220;-90
2021/12/29 10:14:35;;;;;;;2.95;1.33;;;10.00;99.90;;;;;;5087930;28;20727;-83
2021/12/29 10:17:10;;;;;;;1.98;1.20;;;10.00;99.90;;;;;;5098018;28;20194;-83
2021/12/29 10:19:38;;;;;;;2.40;1.30;;;10.10;99.90;;;;;;5091192;28;20189;-82
2021/12/29 10:22:06;;;;;;;3.30;1.15;;;10.10;99.90;;;;;;5091792;27;20202;-82
2021/12/29 10:24:34;;;;;;;3.35;1.23;;;10.10;99.90;;;;;;5096618;28;20286;-83
2021/12/29 10:27:01;;;;;;;2.97;1.33;;;10.10;99.90;;;;;;5091959;28;20194;-82
2021/12/29 10:29:29;;;;;;;3.78;1.00;;;10.20;99.90;;;;;;5091470;28;20562;-82
2021/12/29 10:32:01;;;;;;;2.63;1.20;;;10.20;99.90;;;;;;5098785;28;20190;-82
2021/12/29 10:34:30;;;;;;;1.65;1.48;;;10.30;99.90;;;;;;5100208;28;20692;-81
2021/12/29 10:36:59;;;;;;;3.80;1.20;;;10.40;99.90;;;;;;5092833;28;20199;-82
2021/12/29 10:39:28;;;;;;;1.77;1.05;;;10.40;99.90;;;;;;5090624;28;20191;-80
2021/12/29 10:41:58;;;;;;;2.20;1.30;;;10.40;99.90;;;;;;5094424;28;20198;-81
2021/12/29 10:44:28;;;;;;;3.35;1.10;;;10.40;99.90;;;;;;5093159;28;20245;-81
2021/12/29 10:46:56;;;;;;;2.10;1.05;;;10.40;99.90;;;;;;5092906;28;21815;-79
2021/12/29 10:49:27;;;;;;;1.90;0.95;;;10.40;99.90;;;;;;5089849;28;20739;-81
2021/12/29 10:51:57;;;;;;;2.50;0.98;;;10.30;99.90;;;;;;5093872;28;20206;-81
2021/12/29 10:54:28;;;;;;;3.97;1.65;;;10.30;99.90;;;;;;5101163;28;20219;-82
2021/12/29 10:57:02;;;;;;;1.17;1.08;;;10.40;99.90;;;;;;5089477;28;20251;-77
2021/12/29 10:59:32;;;;;;;1.95;1.30;;;10.50;99.90;;;;;;5096232;28;20278;-81
2021/12/29 11:01:59;;;;;;;2.35;1.00;;;10.50;99.90;;;;;;5091215;28;20194;-82
2021/12/29 11:04:28;;;;;;;2.08;1.30;;;10.50;99.90;;;;;;5092251;28;20237;-82
2021/12/29 11:06:57;;;;;;;2.53;1.13;;;10.60;99.90;;;;;;5097377;28;21319;-81
2021/12/29 11:09:31;;;;;;;1.77;1.25;;;10.60;99.90;;;;;;5097930;28;20187;-80
2021/12/29 11:11:59;;;;;;;1.90;1.42;;;10.60;99.90;;;;;;5099607;28;20192;-78
2021/12/29 11:14:29;;;;;;;3.25;1.40;;;10.60;99.90;;;;;;5090723;28;20569;-79
2021/12/29 11:17:05;;;;;;;2.70;1.00;;;10.60;99.90;;;;;;5099987;28;20198;-79
2021/12/29 11:19:35;;;;;;;2.58;1.20;;;10.50;99.90;;;;;;5097525;28;20200;-78
2021/12/29 11:22:08;;;;;;;1.77;1.13;;;10.40;99.90;;;;;;5100308;28;20194;-79
2021/12/29 11:24:36;;;;;;;3.17;1.58;;;10.30;99.90;;;;;;5097563;28;20321;-79
2021/12/29 11:27:10;;;;;;;2.03;1.40;;;10.30;99.90;;;;;;5105572;28;20648;-79
2021/12/29 11:29:49;;;;;;;3.17;1.63;;;10.20;99.90;;;;;;5097667;28;20234;-79
2021/12/29 11:32:21;;;;;;;3.92;1.60;;;10.10;99.90;;;;;;5096874;28;20194;-79
2021/12/29 11:35:08;;;;;;;2.45;1.50;;;10.10;99.90;;;;;;5102649;28;20209;-77
2021/12/29 11:37:37;;;;;;;5.25;2.40;;;10.10;99.90;;;;;;5088132;28;20750;-76
2021/12/29 11:40:07;;;;;;;3.95;1.92;;;10.20;99.90;;;;;;5096832;28;20223;-75
2021/12/29 11:42:34;;;;;;;1.92;1.30;;;10.30;99.90;;;;;;5097436;28;20203;-75
2021/12/29 11:45:01;;;;;;;1.63;1.50;;;10.40;99.90;;;;;;5094348;28;20221;-75
2021/12/29 11:47:28;;;;;;;2.22;1.38;;;10.40;99.90;;;;;;5096239;28;20251;-80
2021/12/29 11:49:55;;;;;;;2.55;1.50;;;10.50;99.90;;;;;;5099257;28;20198;-80
2021/12/29 11:52:59;;;;;;;1.63;1.33;;;10.60;99.90;;;;;;5092697;28;20195;-78
2021/12/29 11:55:31;;;;;;;2.53;1.60;;;10.60;99.90;;;;;;5097084;28;20707;-78
2021/12/29 11:58:08;;;;;;;2.90;1.10;;;10.60;99.90;;;;;;5099538;28;20202;-79
2021/12/29 12:00:35;;;;;;;2.03;1.10;;;10.40;99.90;;;;;;5095082;28;20207;-81
2021/12/29 12:03:08;;;;;;;4.10;1.00;;;10.40;99.90;;;;;;5095019;27;20283;-79
2021/12/29 12:05:37;;;;;;;1.92;1.10;;;10.40;99.90;;;;;;5100303;28;20233;-80
2021/12/29 12:08:08;;;;;;;2.17;1.15;;;10.30;99.90;;;;;;5104678;28;20202;-79
2021/12/29 12:10:39;;;;;;;1.80;0.85;;;10.40;99.90;;;;;;5104159;28;20300;-80
2021/12/29 12:13:24;;;;;;;2.97;1.13;;;10.30;99.90;;;;;;5102107;28;21138;-80
2021/12/29 12:15:52;;;;;;;1.88;1.02;;;10.40;99.90;;;;;;5095951;28;20316;-79
2021/12/29 12:18:20;;;;;;;3.10;1.00;;;10.30;99.90;;;;;;5099754;28;20189;-80
2021/12/29 12:20:49;;;;;;;1.77;0.90;;;10.30;99.90;;;;;;5104183;28;20198;-79
2021/12/29 12:23:25;;;;;;;1.30;1.05;;;10.40;99.90;;;;;;5099296;28;20194;-80
2021/12/29 12:25:55;;;;;;;1.60;0.93;;;10.30;99.90;;;;;;5102728;27;20221;-79
2021/12/29 12:28:23;;;;;;;3.00;1.35;;;10.40;99.90;;;;;;5099045;28;20305;-80
2021/12/29 12:30:54;;;;;;;2.47;0.90;;;10.30;99.90;;;;;;5101124;28;20288;-80
2021/12/29 12:33:26;;;;;;;1.60;1.13;;;10.30;99.90;;;;;;5090756;27;20206;-80
2021/12/29 12:35:56;;;;;;;2.58;0.98;;;10.30;99.90;;;;;;5100522;28;20195;-80
2021/12/29 12:38:27;;;;;;;1.45;0.90;;;10.30;99.90;;;;;;5099407;28;20198;-79
2021/12/29 12:41:05;;;;;;;3.20;1.30;;;10.40;99.90;;;;;;5096616;28;20198;-79
2021/12/29 12:43:34;;;;;;;4.28;1.33;;;10.50;99.90;;;;;;5096669;28;20567;-80
2021/12/29 12:46:01;;;;;;;4.32;1.40;;;10.50;99.90;;;;;;5093397;28;20694;-79
2021/12/29 12:48:30;;;;;;;3.28;1.60;;;10.60;99.90;;;;;;5112320;28;20277;-80
2021/12/29 12:51:02;;;;;;;5.20;1.75;;;10.60;99.90;;;;;;5102498;28;20217;-79
2021/12/29 12:53:32;;;;;;;3.33;1.42;;;10.70;99.90;;;;;;5099342;28;20708;-79
2021/12/29 12:56:00;;;;;;;2.10;1.35;;;10.70;99.90;;;;;;5094889;28;20308;-79
2021/12/29 12:58:37;;;;;;;2.88;1.50;;;10.70;99.90;;;;;;5108756;28;20229;-79
2021/12/29 13:01:07;;;;;;;4.88;2.22;;;10.70;99.90;;;;;;5095260;28;20289;-79
2021/12/29 13:03:35;;;;;;;4.45;2.15;;;10.70;99.90;;;;;;5107653;28;20221;-79